sensor_id;sensor_type;location;lat;lon;timestamp;P1;durP1;ratioP1;P2;durP2;ratioP2
19436;SDS011;9854;50.968;4.168;2022-12-29T00:01:58;2.15;;;1.75;;
19436;SDS011;9854;50.968;4.168;2022-12-29T00:04:23;3.47;;;1.75;;
19436;SDS011;9854;50.968;4.168;2022-12-29T00:06:49;4.78;;;1.70;;
19436;SDS011;9854;50.968;4.168;2022-12-29T00:09:15;3.83;;;1.70;;
19436;SDS011;9854;50.968;4.168;2022-12-29T00:11:41;1.63;;;1.40;;
19436;SDS011;9854;50.968;4.168;2022-12-29T00:14:08;4.10;;;1.65;;
19436;SDS011;9854;50.968;4.168;2022-12-29T00:16:53;1.67;;;1.20;;
19436;SDS011;9854;50.968;4.168;2022-12-29T00:19:20;3.28;;;1.40;;
19436;SDS011;9854;50.968;4.168;2022-12-29T00:22:04;2.20;;;1.38;;
19436;SDS011;9854;50.968;4.168;2022-12-29T00:24:48;3.30;;;1.40;;
19436;SDS011;9854;50.968;4.168;2022-12-29T00:27:32;2.63;;;1.38;;
19436;SDS011;9854;50.968;4.168;2022-12-29T00:30:17;2.55;;;1.30;;
19436;SDS011;9854;50.968;4.168;2022-12-29T00:33:13;2.83;;;1.33;;
19436;SDS011;9854;50.968;4.168;2022-12-29T00:36:03;3.65;;;1.30;;
19436;SDS011;9854;50.968;4.168;2022-12-29T00:38:35;1.60;;;1.17;;
19436;SDS011;9854;50.968;4.168;2022-12-29T00:41:23;3.80;;;1.40;;
19436;SDS011;9854;50.968;4.168;2022-12-29T00:44:08;2.38;;;1.17;;
19436;SDS011;9854;50.968;4.168;2022-12-29T00:46:39;3.28;;;1.38;;
19436;SDS011;9854;50.968;4.168;2022-12-29T00:49:07;2.65;;;1.10;;
19436;SDS011;9854;50.968;4.168;2022-12-29T00:51:53;2.65;;;1.00;;
19436;SDS011;9854;50.968;4.168;2022-12-29T00:54:20;2.38;;;1.10;;
19436;SDS011;9854;50.968;4.168;2022-12-29T00:56:46;5.03;;;1.30;;
19436;SDS011;9854;50.968;4.168;2022-12-29T00:59:13;4.88;;;1.30;;
19436;SDS011;9854;50.968;4.168;2022-12-29T01:01:39;3.55;;;1.08;;
19436;SDS011;9854;50.968;4.168;2022-12-29T01:04:05;6.30;;;1.50;;
19436;SDS011;9854;50.968;4.168;2022-12-29T01:06:32;4.50;;;1.60;;
19436;SDS011;9854;50.968;4.168;2022-12-29T01:08:58;3.35;;;1.35;;
19436;SDS011;9854;50.968;4.168;2022-12-29T01:11:42;3.78;;;1.10;;
19436;SDS011;9854;50.968;4.168;2022-12-29T01:14:08;5.53;;;1.25;;
19436;SDS011;9854;50.968;4.168;2022-12-29T01:16:34;4.38;;;1.52;;
19436;SDS011;9854;50.968;4.168;2022-12-29T01:19:01;4.05;;;1.33;;
19436;SDS011;9854;50.968;4.168;2022-12-29T01:21:27;4.13;;;1.60;;
19436;SDS011;9854;50.968;4.168;2022-12-29T01:23:53;4.25;;;1.20;;
19436;SDS011;9854;50.968;4.168;2022-12-29T01:26:18;4.03;;;1.40;;
19436;SDS011;9854;50.968;4.168;2022-12-29T01:28:44;5.20;;;1.58;;
19436;SDS011;9854;50.968;4.168;2022-12-29T01:31:10;3.13;;;1.20;;
19436;SDS011;9854;50.968;4.168;2022-12-29T01:33:38;4.38;;;1.33;;
19436;SDS011;9854;50.968;4.168;2022-12-29T01:36:05;3.28;;;1.20;;
19436;SDS011;9854;50.968;4.168;2022-12-29T01:38:33;4.32;;;1.25;;
19436;SDS011;9854;50.968;4.168;2022-12-29T01:40:59;3.40;;;1.20;;
19436;SDS011;9854;50.968;4.168;2022-12-29T01:43:44;4.00;;;1.30;;
19436;SDS011;9854;50.968;4.168;2022-12-29T01:48:43;3.13;;;1.10;;
19436;SDS011;9854;50.968;4.168;2022-12-29T01:51:11;4.38;;;1.35;;
19436;SDS011;9854;50.968;4.168;2022-12-29T01:53:36;5.10;;;1.23;;
19436;SDS011;9854;50.968;4.168;2022-12-29T01:56:04;4.65;;;1.40;;
19436;SDS011;9854;50.968;4.168;2022-12-29T01:58:34;2.97;;;1.13;;
19436;SDS011;9854;50.968;4.168;2022-12-29T02:01:04;3.33;;;1.15;;
19436;SDS011;9854;50.968;4.168;2022-12-29T02:03:30;3.20;;;1.13;;
19436;SDS011;9854;50.968;4.168;2022-12-29T02:06:16;2.50;;;1.00;;
19436;SDS011;9854;50.968;4.168;2022-12-29T02:08:47;7.60;;;1.20;;
19436;SDS011;9854;50.968;4.168;2022-12-29T02:11:16;2.80;;;1.08;;
19436;SDS011;9854;50.968;4.168;2022-12-29T02:13:42;3.60;;;1.10;;
19436;SDS011;9854;50.968;4.168;2022-12-29T02:33:38;3.83;;;1.23;;
19436;SDS011;9854;50.968;4.168;2022-12-29T02:39:09;2.55;;;1.10;;
19436;SDS011;9854;50.968;4.168;2022-12-29T02:47:29;2.70;;;0.88;;
19436;SDS011;9854;50.968;4.168;2022-12-29T02:50:15;3.38;;;1.10;;
19436;SDS011;9854;50.968;4.168;2022-12-29T02:53:05;6.20;;;1.27;;
19436;SDS011;9854;50.968;4.168;2022-12-29T02:55:35;3.05;;;1.23;;
19436;SDS011;9854;50.968;4.168;2022-12-29T02:58:17;9.60;;;1.30;;
19436;SDS011;9854;50.968;4.168;2022-12-29T03:01:03;3.60;;;1.10;;
19436;SDS011;9854;50.968;4.168;2022-12-29T03:11:48;7.38;;;1.35;;
19436;SDS011;9854;50.968;4.168;2022-12-29T03:14:37;4.63;;;1.60;;
19436;SDS011;9854;50.968;4.168;2022-12-29T03:17:43;4.40;;;1.50;;
19436;SDS011;9854;50.968;4.168;2022-12-29T03:20:18;6.38;;;1.20;;
19436;SDS011;9854;50.968;4.168;2022-12-29T03:22:49;4.70;;;1.55;;
19436;SDS011;9854;50.968;4.168;2022-12-29T03:25:20;5.30;;;1.45;;
19436;SDS011;9854;50.968;4.168;2022-12-29T03:28:12;5.80;;;1.42;;
19436;SDS011;9854;50.968;4.168;2022-12-29T03:30:45;7.10;;;1.80;;
19436;SDS011;9854;50.968;4.168;2022-12-29T03:33:12;10.73;;;1.65;;
19436;SDS011;9854;50.968;4.168;2022-12-29T03:35:41;6.75;;;1.73;;
19436;SDS011;9854;50.968;4.168;2022-12-29T03:40:59;8.77;;;1.67;;
19436;SDS011;9854;50.968;4.168;2022-12-29T03:43:28;3.73;;;1.13;;
19436;SDS011;9854;50.968;4.168;2022-12-29T03:45:54;4.53;;;1.48;;
19436;SDS011;9854;50.968;4.168;2022-12-29T03:48:20;6.40;;;1.50;;
19436;SDS011;9854;50.968;4.168;2022-12-29T03:50:46;8.63;;;1.73;;
19436;SDS011;9854;50.968;4.168;2022-12-29T03:53:11;7.25;;;1.50;;
19436;SDS011;9854;50.968;4.168;2022-12-29T03:55:37;9.98;;;1.63;;
19436;SDS011;9854;50.968;4.168;2022-12-29T03:58:03;10.27;;;1.77;;
19436;SDS011;9854;50.968;4.168;2022-12-29T04:00:28;7.30;;;1.52;;
19436;SDS011;9854;50.968;4.168;2022-12-29T04:02:54;8.18;;;2.10;;
19436;SDS011;9854;50.968;4.168;2022-12-29T04:05:20;5.32;;;1.50;;
19436;SDS011;9854;50.968;4.168;2022-12-29T04:07:46;4.43;;;1.70;;
19436;SDS011;9854;50.968;4.168;2022-12-29T04:10:11;6.47;;;1.35;;
19436;SDS011;9854;50.968;4.168;2022-12-29T04:12:37;7.43;;;1.60;;
19436;SDS011;9854;50.968;4.168;2022-12-29T04:15:03;4.72;;;1.20;;
19436;SDS011;9854;50.968;4.168;2022-12-29T04:17:29;4.75;;;1.40;;
19436;SDS011;9854;50.968;4.168;2022-12-29T04:19:54;5.18;;;1.10;;
19436;SDS011;9854;50.968;4.168;2022-12-29T04:22:43;6.97;;;1.58;;
19436;SDS011;9854;50.968;4.168;2022-12-29T04:25:08;5.20;;;1.40;;
19436;SDS011;9854;50.968;4.168;2022-12-29T04:27:34;6.67;;;1.60;;
19436;SDS011;9854;50.968;4.168;2022-12-29T04:30:00;5.78;;;1.52;;
19436;SDS011;9854;50.968;4.168;2022-12-29T04:32:25;6.97;;;1.80;;
19436;SDS011;9854;50.968;4.168;2022-12-29T04:34:51;6.47;;;1.27;;
19436;SDS011;9854;50.968;4.168;2022-12-29T04:37:17;6.88;;;1.55;;
19436;SDS011;9854;50.968;4.168;2022-12-29T04:39:42;5.80;;;1.35;;
19436;SDS011;9854;50.968;4.168;2022-12-29T04:42:08;4.53;;;1.60;;
19436;SDS011;9854;50.968;4.168;2022-12-29T04:44:33;6.40;;;1.17;;
19436;SDS011;9854;50.968;4.168;2022-12-29T04:46:59;4.60;;;1.35;;
19436;SDS011;9854;50.968;4.168;2022-12-29T04:49:25;6.43;;;1.25;;
19436;SDS011;9854;50.968;4.168;2022-12-29T04:51:50;4.25;;;1.10;;
19436;SDS011;9854;50.968;4.168;2022-12-29T04:54:16;3.97;;;1.33;;
19436;SDS011;9854;50.968;4.168;2022-12-29T04:56:41;3.75;;;1.10;;
19436;SDS011;9854;50.968;4.168;2022-12-29T04:59:07;5.30;;;1.27;;
19436;SDS011;9854;50.968;4.168;2022-12-29T05:01:33;3.25;;;1.27;;
19436;SDS011;9854;50.968;4.168;2022-12-29T05:03:58;4.50;;;1.30;;
19436;SDS011;9854;50.968;4.168;2022-12-29T05:06:24;2.95;;;1.02;;
19436;SDS011;9854;50.968;4.168;2022-12-29T05:08:49;3.90;;;1.10;;
19436;SDS011;9854;50.968;4.168;2022-12-29T05:11:16;11.88;;;1.83;;
19436;SDS011;9854;50.968;4.168;2022-12-29T05:13:44;8.00;;;1.52;;
19436;SDS011;9854;50.968;4.168;2022-12-29T05:16:11;5.25;;;1.48;;
19436;SDS011;9854;50.968;4.168;2022-12-29T05:18:37;6.00;;;1.35;;
19436;SDS011;9854;50.968;4.168;2022-12-29T05:21:03;7.18;;;1.60;;
19436;SDS011;9854;50.968;4.168;2022-12-29T05:23:28;6.50;;;1.52;;
19436;SDS011;9854;50.968;4.168;2022-12-29T05:25:54;6.15;;;1.70;;
19436;SDS011;9854;50.968;4.168;2022-12-29T05:28:20;7.43;;;1.30;;
19436;SDS011;9854;50.968;4.168;2022-12-29T05:30:48;3.03;;;1.38;;
19436;SDS011;9854;50.968;4.168;2022-12-29T05:33:15;6.65;;;1.85;;
19436;SDS011;9854;50.968;4.168;2022-12-29T05:35:41;7.07;;;1.77;;
19436;SDS011;9854;50.968;4.168;2022-12-29T05:38:07;9.43;;;1.65;;
19436;SDS011;9854;50.968;4.168;2022-12-29T05:40:32;4.80;;;1.70;;
19436;SDS011;9854;50.968;4.168;2022-12-29T05:42:58;6.43;;;1.60;;
19436;SDS011;9854;50.968;4.168;2022-12-29T05:45:23;7.95;;;1.90;;
19436;SDS011;9854;50.968;4.168;2022-12-29T05:47:49;4.28;;;1.33;;
19436;SDS011;9854;50.968;4.168;2022-12-29T05:50:15;7.90;;;1.90;;
19436;SDS011;9854;50.968;4.168;2022-12-29T05:52:40;6.80;;;1.85;;
19436;SDS011;9854;50.968;4.168;2022-12-29T05:55:06;6.65;;;2.15;;
19436;SDS011;9854;50.968;4.168;2022-12-29T05:57:32;7.20;;;2.05;;
19436;SDS011;9854;50.968;4.168;2022-12-29T05:59:58;15.00;;;2.10;;
19436;SDS011;9854;50.968;4.168;2022-12-29T06:02:23;6.10;;;1.77;;
19436;SDS011;9854;50.968;4.168;2022-12-29T06:04:49;6.95;;;1.90;;
19436;SDS011;9854;50.968;4.168;2022-12-29T06:07:15;4.22;;;1.73;;
19436;SDS011;9854;50.968;4.168;2022-12-29T06:09:40;6.57;;;2.00;;
19436;SDS011;9854;50.968;4.168;2022-12-29T06:12:06;8.60;;;2.00;;
19436;SDS011;9854;50.968;4.168;2022-12-29T06:14:32;7.65;;;2.15;;
19436;SDS011;9854;50.968;4.168;2022-12-29T06:16:57;7.63;;;2.40;;
19436;SDS011;9854;50.968;4.168;2022-12-29T06:19:23;10.10;;;2.42;;
19436;SDS011;9854;50.968;4.168;2022-12-29T06:21:48;7.10;;;1.87;;
19436;SDS011;9854;50.968;4.168;2022-12-29T06:24:14;9.75;;;2.38;;
19436;SDS011;9854;50.968;4.168;2022-12-29T06:26:40;14.10;;;2.78;;
19436;SDS011;9854;50.968;4.168;2022-12-29T06:29:06;10.65;;;2.50;;
19436;SDS011;9854;50.968;4.168;2022-12-29T06:31:33;10.43;;;2.55;;
19436;SDS011;9854;50.968;4.168;2022-12-29T06:33:58;11.98;;;2.60;;
19436;SDS011;9854;50.968;4.168;2022-12-29T06:36:24;12.20;;;2.58;;
19436;SDS011;9854;50.968;4.168;2022-12-29T06:38:50;11.57;;;2.38;;
19436;SDS011;9854;50.968;4.168;2022-12-29T06:41:17;6.47;;;2.20;;
19436;SDS011;9854;50.968;4.168;2022-12-29T06:43:44;10.05;;;2.08;;
19436;SDS011;9854;50.968;4.168;2022-12-29T06:46:10;14.27;;;2.58;;
19436;SDS011;9854;50.968;4.168;2022-12-29T06:48:35;12.73;;;2.85;;
19436;SDS011;9854;50.968;4.168;2022-12-29T06:51:01;12.73;;;2.50;;
19436;SDS011;9854;50.968;4.168;2022-12-29T06:53:26;9.98;;;2.55;;
19436;SDS011;9854;50.968;4.168;2022-12-29T06:55:52;15.25;;;2.60;;
19436;SDS011;9854;50.968;4.168;2022-12-29T06:58:18;8.98;;;2.20;;
19436;SDS011;9854;50.968;4.168;2022-12-29T07:00:43;8.93;;;2.53;;
19436;SDS011;9854;50.968;4.168;2022-12-29T07:03:09;12.18;;;2.35;;
19436;SDS011;9854;50.968;4.168;2022-12-29T07:05:34;10.80;;;2.67;;
19436;SDS011;9854;50.968;4.168;2022-12-29T07:08:00;10.77;;;2.63;;
19436;SDS011;9854;50.968;4.168;2022-12-29T07:10:26;11.38;;;2.95;;
19436;SDS011;9854;50.968;4.168;2022-12-29T07:12:52;9.95;;;2.00;;
19436;SDS011;9854;50.968;4.168;2022-12-29T07:15:17;9.25;;;2.67;;
19436;SDS011;9854;50.968;4.168;2022-12-29T07:17:43;7.05;;;2.42;;
19436;SDS011;9854;50.968;4.168;2022-12-29T07:20:09;13.77;;;2.53;;
19436;SDS011;9854;50.968;4.168;2022-12-29T07:22:35;9.88;;;2.40;;
19436;SDS011;9854;50.968;4.168;2022-12-29T07:25:01;13.48;;;2.88;;
19436;SDS011;9854;50.968;4.168;2022-12-29T07:27:28;9.23;;;2.50;;
19436;SDS011;9854;50.968;4.168;2022-12-29T07:29:53;12.25;;;2.50;;
19436;SDS011;9854;50.968;4.168;2022-12-29T07:32:19;10.32;;;2.63;;
19436;SDS011;9854;50.968;4.168;2022-12-29T07:34:45;14.63;;;2.90;;
19436;SDS011;9854;50.968;4.168;2022-12-29T07:37:12;12.73;;;2.42;;
19436;SDS011;9854;50.968;4.168;2022-12-29T07:39:39;8.68;;;2.65;;
19436;SDS011;9854;50.968;4.168;2022-12-29T07:42:05;13.95;;;3.33;;
19436;SDS011;9854;50.968;4.168;2022-12-29T07:44:30;10.23;;;2.42;;
19436;SDS011;9854;50.968;4.168;2022-12-29T07:46:56;16.02;;;2.47;;
19436;SDS011;9854;50.968;4.168;2022-12-29T07:49:22;8.63;;;2.72;;
19436;SDS011;9854;50.968;4.168;2022-12-29T07:51:47;13.90;;;2.85;;
19436;SDS011;9854;50.968;4.168;2022-12-29T07:54:13;12.50;;;2.30;;
19436;SDS011;9854;50.968;4.168;2022-12-29T07:56:39;12.20;;;3.00;;
19436;SDS011;9854;50.968;4.168;2022-12-29T07:59:05;9.50;;;2.50;;
19436;SDS011;9854;50.968;4.168;2022-12-29T08:01:31;14.48;;;2.92;;
19436;SDS011;9854;50.968;4.168;2022-12-29T08:03:56;11.93;;;2.83;;
19436;SDS011;9854;50.968;4.168;2022-12-29T08:06:22;11.13;;;2.50;;
19436;SDS011;9854;50.968;4.168;2022-12-29T08:08:48;15.13;;;2.63;;
19436;SDS011;9854;50.968;4.168;2022-12-29T08:11:13;13.13;;;2.65;;
19436;SDS011;9854;50.968;4.168;2022-12-29T08:13:39;14.20;;;3.15;;
19436;SDS011;9854;50.968;4.168;2022-12-29T08:16:05;11.93;;;2.45;;
19436;SDS011;9854;50.968;4.168;2022-12-29T08:18:30;11.18;;;3.08;;
19436;SDS011;9854;50.968;4.168;2022-12-29T08:21:00;10.77;;;2.58;;
19436;SDS011;9854;50.968;4.168;2022-12-29T08:23:27;14.82;;;2.97;;
19436;SDS011;9854;50.968;4.168;2022-12-29T08:25:59;9.85;;;3.10;;
19436;SDS011;9854;50.968;4.168;2022-12-29T08:28:26;11.40;;;2.70;;
19436;SDS011;9854;50.968;4.168;2022-12-29T08:30:52;16.17;;;3.13;;
19436;SDS011;9854;50.968;4.168;2022-12-29T08:33:18;12.30;;;2.92;;
19436;SDS011;9854;50.968;4.168;2022-12-29T08:35:44;7.55;;;2.20;;
19436;SDS011;9854;50.968;4.168;2022-12-29T08:38:10;10.85;;;2.47;;
19436;SDS011;9854;50.968;4.168;2022-12-29T08:40:36;12.63;;;3.22;;
19436;SDS011;9854;50.968;4.168;2022-12-29T08:43:02;16.02;;;3.17;;
19436;SDS011;9854;50.968;4.168;2022-12-29T08:45:28;12.70;;;3.05;;
19436;SDS011;9854;50.968;4.168;2022-12-29T08:47:53;7.38;;;2.63;;
19436;SDS011;9854;50.968;4.168;2022-12-29T08:50:19;13.25;;;2.95;;
19436;SDS011;9854;50.968;4.168;2022-12-29T08:52:45;12.43;;;2.85;;
19436;SDS011;9854;50.968;4.168;2022-12-29T08:55:11;12.77;;;3.15;;
19436;SDS011;9854;50.968;4.168;2022-12-29T08:57:36;17.85;;;2.67;;
19436;SDS011;9854;50.968;4.168;2022-12-29T09:00:03;9.93;;;2.85;;
19436;SDS011;9854;50.968;4.168;2022-12-29T09:02:29;11.02;;;2.75;;
19436;SDS011;9854;50.968;4.168;2022-12-29T09:04:54;11.35;;;2.65;;
19436;SDS011;9854;50.968;4.168;2022-12-29T09:07:22;15.13;;;3.60;;
19436;SDS011;9854;50.968;4.168;2022-12-29T09:09:48;15.60;;;3.20;;
19436;SDS011;9854;50.968;4.168;2022-12-29T09:12:15;14.32;;;3.22;;
19436;SDS011;9854;50.968;4.168;2022-12-29T09:14:41;16.27;;;3.40;;
19436;SDS011;9854;50.968;4.168;2022-12-29T09:17:08;14.13;;;3.42;;
19436;SDS011;9854;50.968;4.168;2022-12-29T09:19:52;11.63;;;3.40;;
19436;SDS011;9854;50.968;4.168;2022-12-29T09:22:18;15.13;;;3.20;;
19436;SDS011;9854;50.968;4.168;2022-12-29T09:24:44;13.75;;;3.33;;
19436;SDS011;9854;50.968;4.168;2022-12-29T09:27:09;12.05;;;3.08;;
19436;SDS011;9854;50.968;4.168;2022-12-29T09:29:35;16.63;;;3.08;;
19436;SDS011;9854;50.968;4.168;2022-12-29T09:32:01;13.83;;;3.03;;
19436;SDS011;9854;50.968;4.168;2022-12-29T09:34:26;15.27;;;3.30;;
19436;SDS011;9854;50.968;4.168;2022-12-29T09:36:52;14.63;;;3.10;;
19436;SDS011;9854;50.968;4.168;2022-12-29T09:39:18;17.70;;;3.70;;
19436;SDS011;9854;50.968;4.168;2022-12-29T09:47:29;17.48;;;3.25;;
19436;SDS011;9854;50.968;4.168;2022-12-29T09:49:59;22.92;;;3.60;;
19436;SDS011;9854;50.968;4.168;2022-12-29T09:52:52;21.13;;;4.00;;
19436;SDS011;9854;50.968;4.168;2022-12-29T09:55:40;15.95;;;3.45;;
19436;SDS011;9854;50.968;4.168;2022-12-29T10:00:56;17.95;;;3.40;;
19436;SDS011;9854;50.968;4.168;2022-12-29T10:03:44;13.85;;;3.22;;
19436;SDS011;9854;50.968;4.168;2022-12-29T10:09:20;13.38;;;3.67;;
19436;SDS011;9854;50.968;4.168;2022-12-29T10:14:56;19.52;;;4.05;;
19436;SDS011;9854;50.968;4.168;2022-12-29T10:20:18;14.65;;;3.58;;
19436;SDS011;9854;50.968;4.168;2022-12-29T10:23:38;9.40;;;2.95;;
19436;SDS011;9854;50.968;4.168;2022-12-29T10:25:58;16.88;;;3.65;;
19436;SDS011;9854;50.968;4.168;2022-12-29T10:31:09;16.60;;;3.60;;
19436;SDS011;9854;50.968;4.168;2022-12-29T10:33:45;15.45;;;3.72;;
19436;SDS011;9854;50.968;4.168;2022-12-29T10:36:18;14.18;;;3.90;;
19436;SDS011;9854;50.968;4.168;2022-12-29T10:39:04;23.83;;;4.32;;
19436;SDS011;9854;50.968;4.168;2022-12-29T10:41:50;13.73;;;3.80;;
19436;SDS011;9854;50.968;4.168;2022-12-29T10:44:24;14.88;;;3.25;;
19436;SDS011;9854;50.968;4.168;2022-12-29T10:46:57;16.83;;;3.65;;
19436;SDS011;9854;50.968;4.168;2022-12-29T10:49:26;14.55;;;3.53;;
19436;SDS011;9854;50.968;4.168;2022-12-29T10:51:54;17.95;;;3.55;;
19436;SDS011;9854;50.968;4.168;2022-12-29T10:55:08;11.32;;;3.00;;
19436;SDS011;9854;50.968;4.168;2022-12-29T10:57:35;13.63;;;3.30;;
19436;SDS011;9854;50.968;4.168;2022-12-29T11:00:15;13.55;;;3.13;;
19436;SDS011;9854;50.968;4.168;2022-12-29T11:08:10;12.38;;;3.13;;
19436;SDS011;9854;50.968;4.168;2022-12-29T11:10:42;11.70;;;2.95;;
19436;SDS011;9854;50.968;4.168;2022-12-29T11:13:14;12.00;;;3.30;;
19436;SDS011;9854;50.968;4.168;2022-12-29T11:15:45;11.45;;;3.65;;
19436;SDS011;9854;50.968;4.168;2022-12-29T11:18:25;11.82;;;3.10;;
19436;SDS011;9854;50.968;4.168;2022-12-29T11:20:57;14.82;;;3.33;;
19436;SDS011;9854;50.968;4.168;2022-12-29T11:23:38;17.73;;;3.60;;
19436;SDS011;9854;50.968;4.168;2022-12-29T11:26:12;14.57;;;3.00;;
19436;SDS011;9854;50.968;4.168;2022-12-29T11:28:42;18.20;;;3.08;;
19436;SDS011;9854;50.968;4.168;2022-12-29T11:31:26;12.88;;;3.28;;
19436;SDS011;9854;50.968;4.168;2022-12-29T11:33:52;15.40;;;3.28;;
19436;SDS011;9854;50.968;4.168;2022-12-29T11:36:19;13.02;;;3.33;;
19436;SDS011;9854;50.968;4.168;2022-12-29T11:38:53;12.25;;;2.75;;
19436;SDS011;9854;50.968;4.168;2022-12-29T11:41:24;12.02;;;3.10;;
19436;SDS011;9854;50.968;4.168;2022-12-29T11:43:52;12.80;;;3.35;;
19436;SDS011;9854;50.968;4.168;2022-12-29T11:46:28;12.10;;;2.92;;
19436;SDS011;9854;50.968;4.168;2022-12-29T11:48:57;12.05;;;3.25;;
19436;SDS011;9854;50.968;4.168;2022-12-29T11:51:44;10.25;;;2.60;;
19436;SDS011;9854;50.968;4.168;2022-12-29T11:54:19;10.85;;;2.97;;
19436;SDS011;9854;50.968;4.168;2022-12-29T11:56:52;16.25;;;3.85;;
19436;SDS011;9854;50.968;4.168;2022-12-29T12:01:59;12.95;;;3.28;;
19436;SDS011;9854;50.968;4.168;2022-12-29T12:04:34;15.93;;;3.80;;
19436;SDS011;9854;50.968;4.168;2022-12-29T12:07:03;12.70;;;3.05;;
19436;SDS011;9854;50.968;4.168;2022-12-29T12:09:57;12.95;;;3.17;;
19436;SDS011;9854;50.968;4.168;2022-12-29T12:12:48;19.50;;;3.55;;
19436;SDS011;9854;50.968;4.168;2022-12-29T12:15:17;11.05;;;3.15;;
19436;SDS011;9854;50.968;4.168;2022-12-29T12:17:53;13.35;;;3.53;;
19436;SDS011;9854;50.968;4.168;2022-12-29T12:23:18;13.63;;;3.15;;
19436;SDS011;9854;50.968;4.168;2022-12-29T12:28:37;13.02;;;2.95;;
19436;SDS011;9854;50.968;4.168;2022-12-29T12:31:56;15.45;;;3.22;;
19436;SDS011;9854;50.968;4.168;2022-12-29T12:34:12;16.10;;;3.28;;
19436;SDS011;9854;50.968;4.168;2022-12-29T12:39:40;7.97;;;2.70;;
19436;SDS011;9854;50.968;4.168;2022-12-29T12:42:27;10.20;;;2.97;;
19436;SDS011;9854;50.968;4.168;2022-12-29T12:58:59;12.85;;;3.33;;
19436;SDS011;9854;50.968;4.168;2022-12-29T13:01:58;13.70;;;2.92;;
19436;SDS011;9854;50.968;4.168;2022-12-29T13:23:39;14.02;;;3.08;;
19436;SDS011;9854;50.968;4.168;2022-12-29T13:31:31;9.35;;;2.75;;
19436;SDS011;9854;50.968;4.168;2022-12-29T13:36:55;11.35;;;2.78;;
19436;SDS011;9854;50.968;4.168;2022-12-29T13:39:26;9.65;;;2.50;;
19436;SDS011;9854;50.968;4.168;2022-12-29T13:41:59;12.25;;;2.55;;
19436;SDS011;9854;50.968;4.168;2022-12-29T13:44:32;10.65;;;2.72;;
19436;SDS011;9854;50.968;4.168;2022-12-29T13:47:26;8.48;;;2.10;;
19436;SDS011;9854;50.968;4.168;2022-12-29T13:49:54;7.72;;;2.38;;
19436;SDS011;9854;50.968;4.168;2022-12-29T13:52:37;8.65;;;2.65;;
19436;SDS011;9854;50.968;4.168;2022-12-29T13:55:31;9.80;;;2.70;;
19436;SDS011;9854;50.968;4.168;2022-12-29T13:58:27;17.67;;;3.42;;
19436;SDS011;9854;50.968;4.168;2022-12-29T14:01:03;8.60;;;2.53;;
19436;SDS011;9854;50.968;4.168;2022-12-29T14:03:58;4.13;;;1.50;;
19436;SDS011;9854;50.968;4.168;2022-12-29T14:06:28;3.97;;;1.60;;
19436;SDS011;9854;50.968;4.168;2022-12-29T14:08:56;3.33;;;1.40;;
19436;SDS011;9854;50.968;4.168;2022-12-29T14:11:23;6.43;;;1.70;;
19436;SDS011;9854;50.968;4.168;2022-12-29T14:13:56;3.47;;;1.27;;
19436;SDS011;9854;50.968;4.168;2022-12-29T14:18:52;3.00;;;1.40;;
19436;SDS011;9854;50.968;4.168;2022-12-29T14:21:22;3.53;;;1.30;;
19436;SDS011;9854;50.968;4.168;2022-12-29T14:23:54;5.07;;;1.37;;
19436;SDS011;9854;50.968;4.168;2022-12-29T14:26:46;8.07;;;2.20;;
19436;SDS011;9854;50.968;4.168;2022-12-29T14:29:16;3.05;;;1.35;;
19436;SDS011;9854;50.968;4.168;2022-12-29T14:31:51;4.93;;;1.83;;
19436;SDS011;9854;50.968;4.168;2022-12-29T14:47:32;9.17;;;1.93;;
19436;SDS011;9854;50.968;4.168;2022-12-29T14:55:40;6.37;;;1.83;;
19436;SDS011;9854;50.968;4.168;2022-12-29T14:58:18;8.07;;;1.93;;
19436;SDS011;9854;50.968;4.168;2022-12-29T15:00:47;5.27;;;2.40;;
19436;SDS011;9854;50.968;4.168;2022-12-29T15:05:54;12.87;;;2.70;;
19436;SDS011;9854;50.968;4.168;2022-12-29T15:08:25;9.47;;;2.70;;
19436;SDS011;9854;50.968;4.168;2022-12-29T15:11:00;9.47;;;2.93;;
19436;SDS011;9854;50.968;4.168;2022-12-29T15:13:36;15.07;;;3.27;;
19436;SDS011;9854;50.968;4.168;2022-12-29T15:16:04;10.60;;;2.90;;
19436;SDS011;9854;50.968;4.168;2022-12-29T15:18:45;18.83;;;3.20;;
19436;SDS011;9854;50.968;4.168;2022-12-29T15:21:11;13.43;;;2.90;;
19436;SDS011;9854;50.968;4.168;2022-12-29T15:23:39;8.80;;;2.80;;
19436;SDS011;9854;50.968;4.168;2022-12-29T15:26:09;9.90;;;2.80;;
19436;SDS011;9854;50.968;4.168;2022-12-29T15:28:38;13.57;;;2.90;;
19436;SDS011;9854;50.968;4.168;2022-12-29T15:33:49;13.50;;;3.07;;
19436;SDS011;9854;50.968;4.168;2022-12-29T15:36:23;16.00;;;3.13;;
19436;SDS011;9854;50.968;4.168;2022-12-29T15:38:51;8.03;;;2.53;;
19436;SDS011;9854;50.968;4.168;2022-12-29T15:41:22;14.90;;;2.90;;
19436;SDS011;9854;50.968;4.168;2022-12-29T15:44:25;11.77;;;3.30;;
19436;SDS011;9854;50.968;4.168;2022-12-29T15:47:16;12.13;;;3.95;;
19436;SDS011;9854;50.968;4.168;2022-12-29T15:49:51;15.80;;;3.67;;
19436;SDS011;9854;50.968;4.168;2022-12-29T15:52:19;13.50;;;3.33;;
19436;SDS011;9854;50.968;4.168;2022-12-29T15:54:46;11.23;;;3.83;;
19436;SDS011;9854;50.968;4.168;2022-12-29T15:57:19;12.47;;;4.10;;
19436;SDS011;9854;50.968;4.168;2022-12-29T15:59:49;8.97;;;3.07;;
19436;SDS011;9854;50.968;4.168;2022-12-29T16:02:15;9.00;;;3.53;;
19436;SDS011;9854;50.968;4.168;2022-12-29T16:04:41;10.97;;;3.97;;
19436;SDS011;9854;50.968;4.168;2022-12-29T16:09:58;9.67;;;2.30;;
19436;SDS011;9854;50.968;4.168;2022-12-29T16:12:35;11.53;;;2.93;;
19436;SDS011;9854;50.968;4.168;2022-12-29T16:15:03;14.60;;;3.50;;
19436;SDS011;9854;50.968;4.168;2022-12-29T16:17:49;17.03;;;3.63;;
19436;SDS011;9854;50.968;4.168;2022-12-29T16:20:18;15.07;;;3.30;;
19436;SDS011;9854;50.968;4.168;2022-12-29T16:22:47;8.90;;;3.00;;
19436;SDS011;9854;50.968;4.168;2022-12-29T16:25:25;16.83;;;3.83;;
19436;SDS011;9854;50.968;4.168;2022-12-29T16:27:56;13.10;;;4.17;;
19436;SDS011;9854;50.968;4.168;2022-12-29T16:30:24;17.07;;;3.87;;
19436;SDS011;9854;50.968;4.168;2022-12-29T16:32:52;12.67;;;3.30;;
19436;SDS011;9854;50.968;4.168;2022-12-29T16:35:21;10.93;;;3.80;;
19436;SDS011;9854;50.968;4.168;2022-12-29T16:37:48;14.70;;;3.80;;
19436;SDS011;9854;50.968;4.168;2022-12-29T16:40:32;17.83;;;4.30;;
19436;SDS011;9854;50.968;4.168;2022-12-29T16:43:01;15.17;;;3.33;;
19436;SDS011;9854;50.968;4.168;2022-12-29T16:50:39;20.70;;;4.40;;
19436;SDS011;9854;50.968;4.168;2022-12-29T16:53:06;16.17;;;4.03;;
19436;SDS011;9854;50.968;4.168;2022-12-29T16:55:57;17.20;;;4.23;;
19436;SDS011;9854;50.968;4.168;2022-12-29T16:58:39;16.47;;;4.20;;
19436;SDS011;9854;50.968;4.168;2022-12-29T17:01:05;18.73;;;4.37;;
19436;SDS011;9854;50.968;4.168;2022-12-29T17:03:39;16.03;;;4.47;;
19436;SDS011;9854;50.968;4.168;2022-12-29T17:06:14;20.33;;;4.93;;
19436;SDS011;9854;50.968;4.168;2022-12-29T17:08:41;20.87;;;4.90;;
19436;SDS011;9854;50.968;4.168;2022-12-29T17:11:42;15.67;;;4.93;;
19436;SDS011;9854;50.968;4.168;2022-12-29T17:17:28;21.87;;;5.80;;
19436;SDS011;9854;50.968;4.168;2022-12-29T17:20:05;16.13;;;4.60;;
19436;SDS011;9854;50.968;4.168;2022-12-29T17:22:39;18.93;;;4.87;;
19436;SDS011;9854;50.968;4.168;2022-12-29T17:25:05;22.03;;;5.53;;
19436;SDS011;9854;50.968;4.168;2022-12-29T17:30:02;23.13;;;5.47;;
19436;SDS011;9854;50.968;4.168;2022-12-29T17:32:36;25.80;;;5.73;;
19436;SDS011;9854;50.968;4.168;2022-12-29T17:35:02;18.80;;;4.97;;
19436;SDS011;9854;50.968;4.168;2022-12-29T17:37:37;19.03;;;5.23;;
19436;SDS011;9854;50.968;4.168;2022-12-29T17:40:04;14.83;;;4.73;;
19436;SDS011;9854;50.968;4.168;2022-12-29T17:42:31;26.47;;;5.40;;
19436;SDS011;9854;50.968;4.168;2022-12-29T17:45:02;20.80;;;4.50;;
19436;SDS011;9854;50.968;4.168;2022-12-29T17:47:28;29.53;;;5.47;;
19436;SDS011;9854;50.968;4.168;2022-12-29T17:49:54;22.70;;;5.20;;
19436;SDS011;9854;50.968;4.168;2022-12-29T17:52:20;21.47;;;4.83;;
19436;SDS011;9854;50.968;4.168;2022-12-29T17:54:51;18.97;;;5.10;;
19436;SDS011;9854;50.968;4.168;2022-12-29T17:57:19;18.23;;;5.07;;